Time;durP1;ratioP1;P1;durP2;ratioP2;P2;SDS_P1;SDS_P2;PMS_P1;PMS_P2;Temp;Humidity;BMP_temperature;BMP_pressure;BME280_temperature;BME280_humidity;BME280_pressure;Samples;Min_cycle;Max_cycle;Signal;HPM_P1;HPM_P2
2022/04/12 09:33:43;;;;;;;7.90;2.30;;;20.90;56.40;;;;;;5148846;27;20431;-46
2022/04/12 09:36:10;;;;;;;5.45;2.10;;;21.40;53.30;;;;;;5124933;28;20074;-42
2022/04/12 09:38:38;;;;;;;7.43;2.30;;;21.60;50.90;;;;;;5129256;28;20190;-49
2022/04/12 09:41:19;;;;;;;9.88;2.40;;;21.30;52.00;;;;;;5129230;28;20458;-46
2022/04/12 09:43:51;;;;;;;6.88;2.72;;;21.20;52.90;;;;;;5130519;27;20023;-49
2022/04/12 09:46:16;;;;;;;8.18;2.50;;;21.20;50.70;;;;;;5148265;27;20187;-44
2022/04/12 09:48:47;;;;;;;7.45;2.33;;;20.80;51.60;;;;;;5148664;27;20454;-51
2022/04/12 09:51:13;;;;;;;10.82;2.67;;;20.50;51.90;;;;;;5146872;27;20109;-43
2022/04/12 09:53:40;;;;;;;5.57;2.40;;;20.00;53.80;;;;;;5149901;27;20035;-51
2022/04/12 09:56:15;;;;;;;5.60;2.33;;;20.40;54.10;;;;;;5149704;27;20430;-45
2022/04/12 09:58:44;;;;;;;6.32;2.28;;;20.90;53.10;;;;;;5149628;27;20023;-45
2022/04/12 10:01:10;;;;;;;7.10;2.30;;;21.10;51.20;;;;;;5149742;27;20030;-47
2022/04/12 10:03:37;;;;;;;7.03;2.45;;;21.90;49.90;;;;;;5149569;27;20530;-43
2022/04/12 10:06:06;;;;;;;8.52;2.17;;;22.60;48.40;;;;;;5149531;27;20031;-43
2022/04/12 10:08:35;;;;;;;4.83;2.10;;;23.50;46.90;;;;;;5149552;27;20019;-44
2022/04/12 10:11:01;;;;;;;12.55;2.83;;;24.60;45.30;;;;;;5149487;27;20079;-48
2022/04/12 10:13:29;;;;;;;7.57;2.40;;;24.90;42.80;;;;;;5149217;27;20464;-54
2022/04/12 10:15:55;;;;;;;7.30;2.25;;;24.00;43.50;;;;;;5149460;27;20042;-48
2022/04/12 10:18:21;;;;;;;10.07;2.50;;;23.90;43.60;;;;;;5149491;27;20019;-44
2022/04/12 10:20:47;;;;;;;28.83;15.63;;;23.60;44.90;;;;;;5149256;27;20072;-43
2022/04/12 10:23:23;;;;;;;8.82;5.13;;;23.60;46.20;;;;;;5149120;27;20389;-46
2022/04/12 10:25:54;;;;;;;13.93;7.30;;;24.20;43.50;;;;;;5148130;27;20086;-45
2022/04/12 10:28:22;;;;;;;14.13;5.32;;;23.70;43.00;;;;;;5134093;27;20046;-53
2022/04/12 10:30:48;;;;;;;10.95;3.10;;;23.80;46.30;;;;;;5148138;27;20074;-46
2022/04/12 10:33:24;;;;;;;8.07;2.65;;;24.30;43.90;;;;;;5148767;27;20492;-46
2022/04/12 10:35:54;;;;;;;10.00;2.80;;;24.40;44.50;;;;;;5148936;27;20023;-46
2022/04/12 10:38:22;;;;;;;6.82;2.40;;;24.20;44.30;;;;;;5148905;27;20038;-46
2022/04/12 10:40:56;;;;;;;6.93;2.60;;;24.70;42.70;;;;;;5134121;27;20031;-53
2022/04/12 10:43:33;;;;;;;7.80;2.58;;;25.90;47.30;;;;;;5141702;27;20267;-49
2022/04/12 10:46:02;;;;;;;7.95;3.00;;;27.10;43.00;;;;;;5134206;27;20058;-49
2022/04/12 10:48:29;;;;;;;9.38;2.30;;;27.60;38.80;;;;;;5105900;28;20034;-44
2022/04/12 10:50:58;;;;;;;7.15;2.10;;;27.60;39.40;;;;;;5114107;28;20036;-44
2022/04/12 10:53:38;;;;;;;6.82;2.30;;;27.60;37.70;;;;;;5114590;28;20063;-45
2022/04/12 10:56:12;;;;;;;10.80;2.63;;;28.00;37.80;;;;;;5114277;28;20020;-45
2022/04/12 10:58:39;;;;;;;8.45;4.70;;;27.50;41.00;;;;;;5114020;28;20061;-47
2022/04/12 11:01:09;;;;;;;8.75;3.25;;;28.20;36.60;;;;;;5113899;28;20020;-44
2022/04/12 11:03:41;;;;;;;8.13;3.20;;;27.70;39.50;;;;;;5113909;28;20024;-48
2022/04/12 11:06:10;;;;;;;5.70;2.92;;;27.40;40.50;;;;;;5113942;28;20077;-50
2022/04/12 11:08:36;;;;;;;8.23;2.60;;;27.80;39.60;;;;;;5113882;28;20023;-52
2022/04/12 11:11:03;;;;;;;7.63;3.40;;;27.70;38.30;;;;;;5113487;28;20043;-54
2022/04/12 11:13:34;;;;;;;9.57;4.68;;;27.30;39.10;;;;;;5115221;27;20066;-51
2022/04/12 11:16:01;;;;;;;5.85;1.92;;;27.30;38.70;;;;;;5113871;28;20489;-46
2022/04/12 11:18:53;;;;;;;6.13;2.38;;;27.60;39.10;;;;;;5113962;28;20073;-46
2022/04/12 11:21:27;;;;;;;6.38;2.72;;;27.40;40.10;;;;;;5095266;28;20019;-46
2022/04/12 11:24:02;;;;;;;10.23;2.65;;;27.60;39.70;;;;;;5095280;28;20053;-53
2022/04/12 11:26:40;;;;;;;8.02;2.38;;;27.80;40.60;;;;;;5113805;28;20026;-52
2022/04/12 11:29:10;;;;;;;9.87;2.43;;;26.90;37.30;;;;;;5113659;28;20038;-52
2022/04/12 11:31:47;;;;;;;8.43;2.78;;;25.50;41.00;;;;;;5115958;27;20039;-48
2022/04/12 11:34:14;;;;;;;9.82;2.78;;;24.80;43.10;;;;;;5115497;27;20057;-47
2022/04/12 11:36:44;;;;;;;8.55;2.60;;;24.60;46.20;;;;;;5133966;27;20102;-43
2022/04/12 11:39:10;;;;;;;9.10;2.67;;;24.80;44.10;;;;;;5133879;27;20114;-42
2022/04/12 11:41:35;;;;;;;13.35;5.50;;;24.90;46.80;;;;;;5133880;27;20066;-43
2022/04/12 11:44:03;;;;;;;9.98;3.58;;;25.40;42.80;;;;;;5133586;27;20149;-42
2022/04/12 11:46:30;;;;;;;11.00;3.53;;;25.90;42.30;;;;;;5133702;27;20026;-43
2022/04/12 11:49:10;;;;;;;11.05;3.40;;;25.50;40.40;;;;;;5133753;27;20031;-46
2022/04/12 11:51:44;;;;;;;6.43;2.53;;;25.60;43.00;;;;;;5115256;27;20045;-46
2022/04/12 11:54:24;;;;;;;7.25;2.95;;;25.50;42.80;;;;;;5133507;27;20492;-42
2022/04/12 11:57:13;;;;;;;7.18;2.75;;;25.50;41.50;;;;;;5133000;27;20073;-45
2022/04/12 11:59:44;;;;;;;;;;;25.00;42.70;;;;;;5110307;27;20410;-43
2022/04/12 12:02:11;;;;;;;10.50;3.20;;;25.40;42.00;;;;;;5132963;27;19939;-44
2022/04/12 12:04:43;;;;;;;6.57;2.30;;;25.50;41.60;;;;;;5133218;27;20061;-46
2022/04/12 12:07:08;;;;;;;9.30;4.57;;;25.20;41.70;;;;;;5133500;27;20150;-45
2022/04/12 12:09:35;;;;;;;25.17;13.52;;;24.60;43.20;;;;;;5133364;27;20055;-45
2022/04/12 12:12:06;;;;;;;10.07;3.95;;;24.50;43.50;;;;;;5133096;27;20041;-46
2022/04/12 12:14:33;;;;;;;12.15;5.57;;;24.40;43.50;;;;;;5133307;27;20023;-55
2022/04/12 12:17:13;;;;;;;9.98;3.08;;;23.40;45.30;;;;;;5133293;27;20023;-55
2022/04/12 12:19:40;;;;;;;10.18;2.88;;;22.40;48.20;;;;;;5133229;27;20362;-45
2022/04/12 12:22:09;;;;;;;8.00;2.92;;;21.50;51.60;;;;;;5131914;27;20469;-45
2022/04/12 12:24:56;;;;;;;11.55;2.60;;;21.10;54.00;;;;;;5114165;27;20817;-49
2022/04/12 12:27:30;;;;;;;9.13;2.83;;;21.40;53.10;;;;;;5111796;28;20016;-45
2022/04/12 12:30:20;;;;;;;7.72;2.70;;;21.80;52.40;;;;;;5111688;28;20036;-52
2022/04/12 12:32:49;;;;;;;10.57;2.95;;;21.50;50.80;;;;;;5107887;28;20498;-44
2022/04/12 12:35:15;;;;;;;;;;;21.10;53.70;;;;;;5112219;28;20027;-46
2022/04/12 12:37:42;;;;;;;11.70;2.60;;;21.00;54.60;;;;;;5112052;28;19911;-50
2022/04/12 12:40:18;;;;;;;8.10;2.65;;;20.80;54.20;;;;;;5123603;27;20086;-50
2022/04/12 12:42:44;;;;;;;11.15;2.50;;;20.70;55.40;;;;;;5109267;28;20455;-46
2022/04/12 12:45:19;;;;;;;8.48;2.60;;;21.10;56.10;;;;;;5122012;27;20051;-50
2022/04/12 12:47:56;;;;;;;11.98;3.00;;;21.60;51.90;;;;;;5130274;27;20027;-48
2022/04/12 12:50:24;;;;;;;8.85;2.70;;;21.30;53.20;;;;;;5129095;27;20023;-54
2022/04/12 12:53:00;;;;;;;10.15;3.03;;;20.90;53.30;;;;;;5132569;27;20039;-45
2022/04/12 12:55:28;;;;;;;12.88;2.97;;;20.60;56.60;;;;;;5131279;27;20114;-48
2022/04/12 12:57:58;;;;;;;11.27;3.10;;;20.80;55.80;;;;;;5114028;27;20034;-42
2022/04/12 13:00:27;;;;;;;;;;;21.10;56.10;;;;;;5132931;27;20522;-45
2022/04/12 13:03:03;;;;;;;10.35;2.88;;;21.40;54.50;;;;;;5132540;27;20429;-44
2022/04/12 13:05:30;;;;;;;12.20;3.08;;;22.20;52.40;;;;;;5132367;27;20136;-49
2022/04/12 13:07:59;;;;;;;10.23;2.92;;;22.60;51.80;;;;;;5131962;27;20034;-42
2022/04/12 13:10:26;;;;;;;9.05;2.70;;;22.20;51.60;;;;;;5131193;27;20037;-45
2022/04/12 13:12:52;;;;;;;11.43;3.17;;;22.40;51.40;;;;;;5130195;27;20042;-44
2022/04/12 13:15:18;;;;;;;9.57;3.13;;;22.40;53.20;;;;;;5130565;27;20106;-43
2022/04/12 13:17:44;;;;;;;11.65;3.15;;;22.40;51.20;;;;;;5130814;27;20031;-51
2022/04/12 13:20:13;;;;;;;13.38;3.10;;;22.20;51.30;;;;;;5131209;27;20027;-45
2022/04/12 13:22:39;;;;;;;10.30;3.15;;;21.90;51.40;;;;;;5131446;27;20277;-43
2022/04/12 13:25:05;;;;;;;9.63;2.95;;;21.60;52.20;;;;;;5131580;27;20489;-46
2022/04/12 13:27:31;;;;;;;9.52;3.22;;;21.00;52.90;;;;;;5132097;27;20371;-49
2022/04/12 13:29:57;;;;;;;11.73;3.38;;;19.90;56.20;;;;;;5131928;28;20080;-44
2022/04/12 13:32:24;;;;;;;9.75;3.22;;;19.30;59.90;;;;;;5131870;28;20054;-49
2022/04/12 13:34:50;;;;;;;6.75;3.25;;;19.10;60.00;;;;;;5131882;28;20437;-53
2022/04/12 13:37:16;;;;;;;11.82;3.70;;;18.70;61.70;;;;;;5113696;28;20035;-43
2022/04/12 13:39:42;;;;;;;10.05;3.63;;;18.30;63.30;;;;;;5131849;28;20028;-48
2022/04/12 13:42:08;;;;;;;12.23;3.88;;;18.00;63.70;;;;;;5131780;28;20019;-46
2022/04/12 13:44:35;;;;;;;12.80;3.47;;;17.60;65.40;;;;;;5131932;28;20019;-48
2022/04/12 13:47:02;;;;;;;10.57;3.47;;;17.40;67.00;;;;;;5131912;28;20023;-48
2022/04/12 13:49:29;;;;;;;11.50;3.30;;;17.30;67.10;;;;;;5131757;28;20031;-46
2022/04/12 13:51:56;;;;;;;10.80;3.83;;;17.20;67.20;;;;;;5131509;28;20031;-46
2022/04/12 13:54:22;;;;;;;11.15;3.40;;;17.10;67.40;;;;;;5131789;28;20031;-45
2022/04/12 13:56:48;;;;;;;12.98;3.60;;;17.10;67.60;;;;;;5131984;28;20027;-46
2022/04/12 13:59:14;;;;;;;7.55;3.22;;;17.20;67.40;;;;;;5131695;28;20095;-46
2022/04/12 14:01:39;;;;;;;8.93;2.90;;;17.10;67.00;;;;;;5131625;28;20019;-42
2022/04/12 14:04:05;;;;;;;12.65;3.95;;;17.00;68.80;;;;;;5131681;28;20034;-48
2022/04/12 14:06:31;;;;;;;15.65;4.50;;;16.80;68.20;;;;;;5131534;28;20020;-49
2022/04/12 14:08:56;;;;;;;12.25;3.97;;;16.50;69.70;;;;;;5131892;28;20423;-43
2022/04/12 14:11:22;;;;;;;10.43;3.42;;;16.20;70.30;;;;;;5131598;28;20027;-45
2022/04/12 14:13:48;;;;;;;11.50;3.88;;;16.00;72.10;;;;;;5131449;28;20023;-50
2022/04/12 14:16:15;;;;;;;13.43;4.20;;;15.90;73.10;;;;;;5131624;28;20057;-48
2022/04/12 14:18:41;;;;;;;13.13;4.00;;;15.90;75.40;;;;;;5132886;27;20533;-52
2022/04/12 14:21:10;;;;;;;14.25;4.38;;;15.90;77.10;;;;;;5135494;27;20075;-48
2022/04/12 14:23:37;;;;;;;14.10;4.45;;;15.90;79.80;;;;;;5135321;27;20479;-56
2022/04/12 14:26:07;;;;;;;18.15;4.95;;;15.70;80.00;;;;;;5135783;27;20113;-49
2022/04/12 14:28:34;;;;;;;13.18;4.40;;;15.40;81.40;;;;;;5135399;27;20023;-44
2022/04/12 14:31:09;;;;;;;13.80;5.20;;;15.30;83.60;;;;;;5135139;27;20025;-45
2022/04/12 14:33:36;;;;;;;12.25;4.95;;;15.30;84.40;;;;;;5135371;27;20481;-51
2022/04/12 14:36:08;;;;;;;15.60;5.55;;;15.20;85.00;;;;;;5099952;27;20031;-43
2022/04/12 14:38:34;;;;;;;14.10;4.20;;;15.00;86.20;;;;;;5135223;27;20528;-53
2022/04/12 14:41:00;;;;;;;10.35;4.60;;;14.90;87.20;;;;;;5135155;27;20015;-47
2022/04/12 14:43:26;;;;;;;12.70;4.53;;;14.80;87.40;;;;;;5135159;27;20034;-47
2022/04/12 14:45:54;;;;;;;14.52;4.55;;;14.80;88.10;;;;;;5135187;27;20072;-45
2022/04/12 14:48:20;;;;;;;11.65;4.72;;;14.60;88.30;;;;;;5134924;27;20023;-47
2022/04/12 14:50:47;;;;;;;11.48;4.57;;;14.50;89.80;;;;;;5134155;27;20114;-45
2022/04/12 14:53:19;;;;;;;15.77;5.65;;;14.50;90.20;;;;;;5132061;27;20354;-45
2022/04/12 14:55:46;;;;;;;17.05;5.63;;;14.50;90.80;;;;;;5134901;27;20023;-51
2022/04/12 14:58:12;;;;;;;10.52;4.65;;;14.50;90.50;;;;;;5130837;27;20023;-42
2022/04/12 15:00:38;;;;;;;14.02;5.28;;;14.50;90.60;;;;;;5130802;27;20027;-47
2022/04/12 15:03:04;;;;;;;13.32;5.13;;;14.30;91.10;;;;;;5120545;27;20564;-45
2022/04/12 15:05:30;;;;;;;13.75;4.97;;;14.30;91.20;;;;;;5114123;28;20032;-43
2022/04/12 15:07:56;;;;;;;9.23;5.07;;;14.40;91.60;;;;;;5114093;28;20028;-48
2022/04/12 15:10:21;;;;;;;12.05;4.72;;;14.50;91.50;;;;;;5114091;28;20028;-44
2022/04/12 15:12:47;;;;;;;8.52;4.22;;;14.70;91.30;;;;;;5113188;27;20035;-46
2022/04/12 15:15:13;;;;;;;12.05;4.50;;;14.70;91.40;;;;;;5116002;27;20027;-45
2022/04/12 15:17:40;;;;;;;10.77;4.60;;;14.80;90.80;;;;;;5120323;27;20023;-48
2022/04/12 15:20:08;;;;;;;10.18;4.40;;;15.00;91.00;;;;;;5125256;27;20099;-42
2022/04/12 15:22:33;;;;;;;9.70;3.85;;;15.00;90.60;;;;;;5110981;27;20031;-43
2022/04/12 15:24:59;;;;;;;9.13;3.72;;;15.20;90.30;;;;;;5110662;28;20028;-44
2022/04/12 15:27:25;;;;;;;12.30;4.78;;;15.30;89.90;;;;;;5114876;27;20034;-44
2022/04/12 15:29:50;;;;;;;10.57;4.55;;;15.20;90.20;;;;;;5113313;28;20107;-42
2022/04/12 15:32:17;;;;;;;10.98;4.80;;;15.10;90.10;;;;;;5112618;28;20044;-52
2022/04/12 15:34:46;;;;;;;9.25;4.40;;;15.10;90.60;;;;;;5113313;28;20035;-54
2022/04/12 15:37:12;;;;;;;11.43;4.72;;;15.00;90.50;;;;;;5091957;28;20039;-49
2022/04/12 15:39:37;;;;;;;11.20;4.82;;;15.00;90.80;;;;;;5091876;28;20115;-50
2022/04/12 15:42:06;;;;;;;9.45;4.20;;;14.90;90.90;;;;;;5120455;27;20058;-43
2022/04/12 15:44:32;;;;;;;11.95;4.47;;;14.80;90.40;;;;;;5112193;28;20042;-47
2022/04/12 15:46:58;;;;;;;14.13;4.22;;;14.70;91.00;;;;;;5096920;28;20439;-50
2022/04/12 15:49:24;;;;;;;13.27;3.97;;;14.80;91.30;;;;;;5113124;28;20027;-43
2022/04/12 15:51:50;;;;;;;10.50;4.65;;;14.80;90.80;;;;;;5113066;28;20070;-43
2022/04/12 15:54:16;;;;;;;12.57;4.63;;;14.70;91.10;;;;;;5103966;27;20036;-43
2022/04/12 15:56:41;;;;;;;8.73;4.05;;;14.60;90.80;;;;;;5093141;27;20039;-48
2022/04/12 15:59:07;;;;;;;9.20;4.55;;;14.60;91.20;;;;;;5116956;27;20104;-49
2022/04/12 16:01:33;;;;;;;11.30;4.35;;;14.70;91.40;;;;;;5112242;27;20056;-43
2022/04/12 16:04:00;;;;;;;9.73;4.30;;;14.90;91.50;;;;;;5102665;27;20363;-42
2022/04/12 16:06:26;;;;;;;12.50;4.30;;;15.00;91.30;;;;;;5110930;27;20027;-46
2022/04/12 16:08:53;;;;;;;9.50;4.30;;;15.10;90.80;;;;;;5118357;27;20019;-44
2022/04/12 16:11:18;;;;;;;12.13;4.10;;;15.20;90.00;;;;;;5123215;27;20027;-46
2022/04/12 16:13:44;;;;;;;14.60;4.80;;;15.10;89.80;;;;;;5121623;27;20535;-44
2022/04/12 16:16:10;;;;;;;12.95;4.53;;;15.00;90.30;;;;;;5120630;27;20020;-41
2022/04/12 16:18:37;;;;;;;11.55;4.60;;;15.00;91.10;;;;;;5096881;27;20096;-42
2022/04/12 16:21:03;;;;;;;12.60;4.43;;;15.00;90.80;;;;;;5112655;27;20031;-42
2022/04/12 16:23:29;;;;;;;13.30;5.40;;;15.00;90.60;;;;;;5108882;27;20105;-42
2022/04/12 16:25:54;;;;;;;12.15;5.38;;;14.90;91.00;;;;;;5118258;27;20102;-43
2022/04/12 16:28:20;;;;;;;12.20;4.25;;;15.00;90.60;;;;;;5116495;27;20484;-43
2022/04/12 16:30:46;;;;;;;10.73;4.80;;;15.00;90.30;;;;;;5122269;27;20050;-45
2022/04/12 16:33:12;;;;;;;12.00;4.55;;;15.00;90.70;;;;;;5104298;27;20043;-45
2022/04/12 16:35:41;;;;;;;14.48;5.07;;;15.10;90.20;;;;;;5131205;27;20094;-48
2022/04/12 16:38:09;;;;;;;14.00;5.18;;;15.10;88.40;;;;;;5131288;27;20068;-50
2022/04/12 16:40:36;;;;;;;15.93;5.13;;;15.10;90.40;;;;;;5124987;27;20019;-45
2022/04/12 16:43:03;;;;;;;18.08;6.20;;;15.00;90.20;;;;;;5132485;27;20500;-46
2022/04/12 16:45:29;;;;;;;14.48;5.22;;;15.00;90.40;;;;;;5131588;27;20022;-42
2022/04/12 16:47:55;;;;;;;13.63;4.93;;;14.90;90.60;;;;;;5128255;27;20019;-42
2022/04/12 16:50:21;;;;;;;15.45;5.00;;;15.00;90.10;;;;;;5121774;27;21622;-45
2022/04/12 16:52:49;;;;;;;20.05;6.47;;;14.90;90.00;;;;;;5120828;27;20031;-44
2022/04/12 16:55:16;;;;;;;14.23;4.70;;;14.90;90.30;;;;;;5107134;28;20028;-45
2022/04/12 16:57:42;;;;;;;18.90;5.53;;;14.90;90.30;;;;;;5112149;28;20032;-50
2022/04/12 17:00:09;;;;;;;18.30;4.90;;;15.00;90.30;;;;;;5111392;28;20091;-45
2022/04/12 17:02:35;;;;;;;18.05;5.25;;;15.00;90.00;;;;;;5110277;27;20035;-50
2022/04/12 17:05:05;;;;;;;11.32;4.72;;;15.10;89.10;;;;;;5114380;27;20024;-47
2022/04/12 17:07:31;;;;;;;16.23;4.90;;;15.00;89.50;;;;;;5116637;27;20031;-49
2022/04/12 17:09:56;;;;;;;12.60;4.70;;;14.90;90.00;;;;;;5124925;27;20015;-57
